Time;durP1;ratioP1;P1;durP2;ratioP2;P2;SDS_P1;SDS_P2;PMS_P1;PMS_P2;Temp;Humidity;BMP_temperature;BMP_pressure;BME280_temperature;BME280_humidity;BME280_pressure;Samples;Min_cycle;Max_cycle;Signal;HPM_P1;HPM_P2
2022/12/05 00:01:39;;;;;;;20.58;11.02;;;;;;;5.18;78.34;96059.84;5022256;28;20473;-81
2022/12/05 00:04:08;;;;;;;18.33;9.98;;;;;;;5.67;79.07;96143.91;5039791;28;20052;-81
2022/12/05 00:06:35;;;;;;;20.08;10.43;;;;;;;4.60;78.43;95974.25;5021661;28;20080;-81
2022/12/05 00:09:01;;;;;;;19.65;11.43;;;;;;;4.49;78.52;95963.66;5040577;28;20037;-81
2022/12/05 00:11:29;;;;;;;19.25;9.68;;;;;;;4.39;78.55;95955.47;5040768;28;20075;-81
2022/12/05 00:13:56;;;;;;;18.48;10.13;;;;;;;4.88;78.55;96030.81;5055332;28;20060;-81
2022/12/05 00:16:25;;;;;;;20.50;11.32;;;;;;;5.70;78.71;96150.56;5021451;28;20052;-81
2022/12/05 00:18:51;;;;;;;18.35;9.85;;;;;;;5.48;78.77;96121.25;5039700;28;20862;-81
2022/12/05 00:21:20;;;;;;;18.13;9.80;;;;;;;5.02;79.01;96076.97;5039665;28;20049;-81
2022/12/05 00:23:46;;;;;;;21.50;10.07;;;;;;;4.99;78.33;96059.00;5021679;28;20072;-81
2022/12/05 00:26:12;;;;;;;21.63;9.75;;;;;;;5.47;78.24;96127.50;5020949;28;20570;-81
2022/12/05 00:28:39;;;;;;;17.88;10.05;;;;;;;5.63;78.25;96153.25;5040261;28;20059;-81
2022/12/05 00:31:16;;;;;;;22.52;11.05;;;;;;;4.64;79.08;96020.09;5018866;28;20056;-81
2022/12/05 00:33:42;;;;;;;20.92;10.13;;;;;;;5.37;78.95;96119.31;5039539;28;20037;-81
2022/12/05 00:36:11;;;;;;;21.13;10.65;;;;;;;5.01;78.82;96067.47;5021695;28;20519;-81
2022/12/05 00:38:37;;;;;;;19.95;11.13;;;;;;;5.57;78.86;96166.50;5021445;28;20068;-81
2022/12/05 00:41:11;;;;;;;21.52;11.02;;;;;;;4.80;78.87;96042.41;5039067;28;20521;-82
2022/12/05 00:43:37;;;;;;;22.80;10.73;;;;;;;4.89;79.07;96050.78;5021318;28;20103;-81
2022/12/05 00:46:04;;;;;;;22.05;10.02;;;;;;;5.62;79.32;96162.19;5039117;28;20045;-81
2022/12/05 00:48:30;;;;;;;20.60;11.10;;;;;;;5.04;78.69;96070.47;5039571;28;20056;-81
2022/12/05 00:51:06;;;;;;;22.20;10.27;;;;;;;5.20;78.57;96100.66;5054942;28;20052;-81
2022/12/05 00:53:32;;;;;;;21.02;10.27;;;;;;;5.23;79.19;96102.88;5039381;28;20045;-82
2022/12/05 00:56:08;;;;;;;19.15;10.40;;;;;;;5.66;78.99;96162.53;5038555;28;20048;-81
2022/12/05 00:58:34;;;;;;;23.27;11.52;;;;;;;4.88;79.14;96030.81;5054557;28;20052;-82
2022/12/05 01:01:16;;;;;;;21.85;11.25;;;;;;;5.22;78.98;96082.03;5050892;28;20134;-81
2022/12/05 01:03:43;;;;;;;24.13;11.07;;;;;;;5.01;78.71;96044.63;5039195;28;20037;-81
2022/12/05 01:06:09;;;;;;;21.33;10.77;;;;;;;5.14;78.95;96061.28;5038681;28;20041;-83
2022/12/05 01:08:35;;;;;;;20.15;10.57;;;;;;;5.57;78.74;96127.78;5038804;28;20064;-81
2022/12/05 01:11:02;;;;;;;23.63;10.63;;;;;;;5.62;79.73;96138.50;5054908;28;20140;-81
2022/12/05 01:13:28;;;;;;;21.95;11.18;;;;;;;5.26;79.73;96072.72;5038844;28;20028;-81
2022/12/05 01:15:53;;;;;;;22.90;10.98;;;;;;;5.15;78.93;96047.91;5038757;28;20846;-81
2022/12/05 01:18:21;;;;;;;20.70;10.50;;;;;;;5.68;79.04;96142.88;5022762;28;20064;-82
2022/12/05 01:20:47;;;;;;;23.45;11.30;;;;;;;5.67;79.25;96137.81;5025038;28;20883;-81
2022/12/05 01:23:13;;;;;;;21.75;11.55;;;;;;;5.70;78.88;96140.03;5025285;28;20116;-81
2022/12/05 01:25:40;;;;;;;24.60;12.02;;;;;;;5.66;79.55;96141.47;5043759;28;20049;-81
2022/12/05 01:28:06;;;;;;;26.15;11.48;;;;;;;4.94;79.04;96028.13;5025046;28;20036;-81
2022/12/05 01:30:32;;;;;;;22.77;9.95;;;;;;;4.98;79.35;96034.53;5025392;28;20051;-81
2022/12/05 01:32:58;;;;;;;24.55;11.98;;;;;;;5.52;79.74;96106.59;5025205;28;20701;-81
2022/12/05 01:35:24;;;;;;;25.30;12.27;;;;;;;5.57;79.71;96119.91;5042872;28;20045;-81
2022/12/05 01:37:50;;;;;;;25.10;11.60;;;;;;;5.00;79.51;96032.50;5043852;28;20127;-81
2022/12/05 01:40:16;;;;;;;24.50;11.13;;;;;;;4.97;79.85;96016.34;5043662;28;20048;-81
2022/12/05 01:42:41;;;;;;;25.00;11.55;;;;;;;5.20;79.23;96053.31;5024586;28;20045;-81
2022/12/05 01:45:15;;;;;;;26.67;11.65;;;;;;;5.26;79.53;96044.59;5043028;28;20040;-81
2022/12/05 01:47:41;;;;;;;26.08;11.38;;;;;;;4.59;79.28;95933.25;5042352;28;20060;-81
2022/12/05 01:50:07;;;;;;;19.42;10.75;;;;;;;4.93;79.33;95984.44;5043427;28;20056;-81
2022/12/05 01:52:33;;;;;;;22.48;10.52;;;;;;;4.90;79.44;96008.53;5057937;28;20052;-81
2022/12/05 01:55:05;;;;;;;24.13;11.75;;;;;;;5.57;79.73;96108.59;5024453;28;20118;-81
2022/12/05 01:57:31;;;;;;;25.73;13.40;;;;;;;5.27;80.03;96071.66;5007924;28;20072;-81
2022/12/05 02:00:03;;;;;;;24.58;11.32;;;;;;;5.13;79.99;96052.59;5043440;28;20623;-81
2022/12/05 02:02:30;;;;;;;23.95;11.73;;;;;;;5.15;80.23;96049.75;5024726;28;20059;-81
2022/12/05 02:05:01;;;;;;;31.45;12.60;;;;;;;5.63;79.79;96110.34;5041971;28;20083;-81
2022/12/05 02:07:27;;;;;;;24.08;11.75;;;;;;;5.14;79.37;96027.09;5042614;28;20144;-81
2022/12/05 02:09:53;;;;;;;24.63;11.95;;;;;;;5.14;79.49;96025.28;5042405;28;20122;-81
2022/12/05 02:12:20;;;;;;;21.42;11.63;;;;;;;5.66;79.43;96118.59;5041941;28;20044;-81
2022/12/05 02:14:58;;;;;;;20.75;10.52;;;;;;;5.69;80.04;96130.53;5041979;28;20041;-81
2022/12/05 02:17:42;;;;;;;25.08;11.20;;;;;;;5.66;79.70;96120.41;5023836;28;20056;-81
2022/12/05 02:20:16;;;;;;;23.60;11.45;;;;;;;5.64;80.29;96117.22;5023559;28;20891;-81
2022/12/05 02:23:19;;;;;;;18.92;10.02;;;;;;;5.72;79.60;96117.72;5042007;28;20622;-81
2022/12/05 02:25:56;;;;;;;19.73;10.38;;;;;;;5.70;79.56;96122.41;5042125;28;20112;-84
2022/12/05 02:28:43;;;;;;;24.00;10.70;;;;;;;5.73;79.60;96118.50;5041372;28;20052;-84
2022/12/05 02:31:25;;;;;;;28.23;10.88;;;;;;;5.75;79.84;96116.47;5023617;28;20041;-82
2022/12/05 02:34:05;;;;;;;23.52;10.07;;;;;;;5.71;79.89;96117.94;5024664;28;20045;-81
2022/12/05 02:36:43;;;;;;;22.75;10.40;;;;;;;5.74;79.60;96109.59;5040684;28;20064;-81
2022/12/05 02:39:20;;;;;;;23.38;10.63;;;;;;;5.70;79.69;96108.44;5040733;28;20071;-81
2022/12/05 02:42:12;;;;;;;21.85;11.98;;;;;;;5.46;79.54;96062.75;5040599;28;20045;-81
2022/12/05 02:44:56;;;;;;;24.88;11.35;;;;;;;5.78;79.72;96106.31;5023117;28;20572;-81
2022/12/05 02:47:26;;;;;;;18.75;10.05;;;;;;;5.85;80.07;96106.25;5040818;28;20041;-81
2022/12/05 02:49:53;;;;;;;21.88;10.40;;;;;;;5.17;79.73;95987.22;5023412;28;20106;-81
2022/12/05 02:52:21;;;;;;;19.38;10.23;;;;;;;5.24;79.79;96003.72;5041235;28;20052;-82
2022/12/05 02:54:50;;;;;;;22.30;10.32;;;;;;;5.39;79.98;96028.66;5022953;28;20048;-81
2022/12/05 02:57:16;;;;;;;23.33;10.55;;;;;;;5.88;79.39;96105.00;5041547;28;20041;-82
2022/12/05 02:59:42;;;;;;;25.95;12.20;;;;;;;5.85;79.73;96094.91;5022659;28;20079;-81
2022/12/05 03:02:21;;;;;;;21.38;10.50;;;;;;;4.97;79.81;95966.41;5039355;28;20504;-81
2022/12/05 03:04:46;;;;;;;21.88;10.60;;;;;;;5.49;79.53;96041.28;5021094;28;20040;-82
2022/12/05 03:07:14;;;;;;;28.00;11.48;;;;;;;5.70;79.70;96080.31;5040249;28;20554;-81
2022/12/05 03:09:44;;;;;;;26.77;12.15;;;;;;;5.31;79.88;96009.72;5038028;28;20585;-81
2022/12/05 03:12:24;;;;;;;20.45;10.75;;;;;;;5.90;79.92;96100.34;5041506;28;20083;-81
2022/12/05 03:14:53;;;;;;;22.13;11.35;;;;;;;5.95;79.46;96098.63;5022907;28;20049;-81
2022/12/05 03:17:24;;;;;;;23.90;10.60;;;;;;;5.94;79.27;96104.94;5041356;28;20048;-81
2022/12/05 03:20:04;;;;;;;25.20;11.68;;;;;;;5.94;79.46;96104.94;5006176;28;20052;-81
2022/12/05 03:22:42;;;;;;;21.45;10.35;;;;;;;5.90;78.95;96106.41;5023059;28;20060;-81
2022/12/05 03:25:11;;;;;;;21.92;10.52;;;;;;;5.12;79.26;95974.72;5022506;28;20048;-81
2022/12/05 03:27:45;;;;;;;23.88;11.50;;;;;;;5.95;79.20;96096.00;5040799;28;20048;-81
2022/12/05 03:30:18;;;;;;;24.15;10.50;;;;;;;5.99;78.89;96101.66;5022563;28;20041;-81
2022/12/05 03:33:14;;;;;;;23.52;10.80;;;;;;;5.97;79.18;96109.75;5023432;28;20045;-81
2022/12/05 03:36:10;;;;;;;23.63;11.18;;;;;;;5.97;79.46;96104.50;5040222;28;20037;-82
2022/12/05 03:38:48;;;;;;;25.77;12.25;;;;;;;5.90;79.05;96109.03;5039027;28;20538;-82
2022/12/05 03:41:25;;;;;;;22.60;10.90;;;;;;;5.80;79.57;96106.09;5021310;28;20040;-82
2022/12/05 03:44:05;;;;;;;23.50;11.52;;;;;;;5.15;79.26;95991.91;5038720;28;20098;-82
2022/12/05 03:46:42;;;;;;;25.58;11.25;;;;;;;5.01;79.22;95975.47;5022143;28;20048;-82
2022/12/05 03:49:14;;;;;;;25.23;11.25;;;;;;;5.91;79.07;96105.38;5022502;28;20110;-82
2022/12/05 03:51:59;;;;;;;20.75;9.80;;;;;;;5.66;79.20;96054.63;5038223;28;20472;-82
2022/12/05 03:54:36;;;;;;;24.33;11.63;;;;;;;5.97;79.03;96109.75;5008303;28;20049;-82
2022/12/05 03:57:08;;;;;;;24.50;10.70;;;;;;;5.39;78.68;96010.22;5040127;28;20068;-81
2022/12/05 03:59:54;;;;;;;26.70;11.82;;;;;;;5.81;79.12;96120.84;5022203;28;20053;-82
2022/12/05 04:02:44;;;;;;;25.23;11.20;;;;;;;5.51;79.21;96073.41;5021648;28;20443;-82
2022/12/05 04:05:27;;;;;;;24.88;10.07;;;;;;;5.79;78.91;96096.59;5034129;28;20578;-82
2022/12/05 04:08:06;;;;;;;24.25;11.25;;;;;;;4.15;78.81;95839.75;5040037;28;20149;-82
2022/12/05 04:10:48;;;;;;;23.35;10.50;;;;;;;5.77;79.87;96109.16;5055293;28;20048;-82
2022/12/05 04:13:42;;;;;;;21.70;10.60;;;;;;;5.87;79.46;96098.94;5039832;28;20552;-83
2022/12/05 04:19:22;;;;;;;22.65;10.93;;;;;;;5.94;78.83;96096.25;5023093;28;20056;-82
2022/12/05 04:21:52;;;;;;;26.27;11.80;;;;;;;5.28;79.19;96018.84;5037943;28;20744;-82
2022/12/05 04:27:43;;;;;;;24.60;10.93;;;;;;;5.40;79.77;96034.72;5039340;28;20573;-83
2022/12/05 04:30:11;;;;;;;25.75;12.13;;;;;;;5.88;78.94;96086.56;5039689;28;20109;-83
2022/12/05 04:32:52;;;;;;;28.15;11.45;;;;;;;5.81;79.11;96090.06;5039456;28;20751;-81
2022/12/05 04:35:31;;;;;;;29.60;11.63;;;;;;;5.90;79.61;96087.16;5020909;28;20137;-80
2022/12/05 04:38:26;;;;;;;27.55;11.93;;;;;;;5.25;78.63;95974.59;5039062;28;20052;-81
2022/12/05 04:41:04;;;;;;;24.90;11.95;;;;;;;5.94;78.96;96090.97;5020499;28;20947;-80
2022/12/05 04:43:35;;;;;;;28.75;12.07;;;;;;;5.91;78.80;96100.13;5054507;28;20047;-81
2022/12/05 04:46:04;;;;;;;22.13;11.43;;;;;;;5.28;79.24;96008.31;5020568;28;20076;-81
2022/12/05 04:48:30;;;;;;;28.60;12.05;;;;;;;5.19;79.39;96003.59;5037135;28;20072;-81
2022/12/05 04:50:58;;;;;;;26.48;11.93;;;;;;;5.15;79.33;95997.97;5038777;28;20519;-82
2022/12/05 04:53:28;;;;;;;26.42;12.07;;;;;;;5.79;79.62;96105.31;5001924;28;20045;-81
2022/12/05 04:55:57;;;;;;;28.35;12.20;;;;;;;5.90;79.09;96109.03;5038690;28;20037;-81
2022/12/05 04:58:25;;;;;;;24.55;11.00;;;;;;;5.53;79.45;96057.41;5039018;28;20041;-81
2022/12/05 05:01:03;;;;;;;28.45;11.98;;;;;;;5.93;79.47;96110.44;5039220;28;20559;-81
2022/12/05 05:03:53;;;;;;;24.65;12.98;;;;;;;5.03;78.68;95983.94;5038919;28;20045;-81
2022/12/05 05:06:18;;;;;;;29.42;12.95;;;;;;;5.20;79.13;96000.72;5020727;28;20080;-81
2022/12/05 05:08:52;;;;;;;30.08;12.48;;;;;;;5.94;79.16;96114.69;5020670;28;20087;-81
2022/12/05 05:11:27;;;;;;;24.63;12.07;;;;;;;5.45;78.86;96029.59;5038118;28;20484;-81
2022/12/05 05:13:56;;;;;;;25.13;12.02;;;;;;;5.47;79.42;96056.47;5021207;28;20056;-81
2022/12/05 05:16:30;;;;;;;27.73;11.38;;;;;;;5.82;79.34;96110.13;5028507;28;20114;-82
2022/12/05 05:18:56;;;;;;;33.33;12.38;;;;;;;5.52;79.09;96071.59;5039051;28;20073;-82
2022/12/05 05:21:37;;;;;;;32.35;12.32;;;;;;;5.90;79.08;96129.28;5019633;28;20476;-82
2022/12/05 05:24:03;;;;;;;23.90;11.95;;;;;;;5.73;79.19;96113.25;5037001;28;20595;-81
2022/12/05 05:26:32;;;;;;;26.85;12.20;;;;;;;5.23;79.54;96023.16;5034349;28;20122;-81
2022/12/05 05:28:58;;;;;;;25.38;11.82;;;;;;;5.79;79.39;96130.81;5030653;28;20057;-81
2022/12/05 05:31:23;;;;;;;23.38;11.13;;;;;;;5.19;80.03;96020.16;5019487;28;20049;-82
2022/12/05 05:33:54;;;;;;;23.13;11.05;;;;;;;4.20;79.11;95873.22;5029395;28;20048;-83
2022/12/05 05:36:22;;;;;;;27.63;12.00;;;;;;;5.34;79.45;96051.38;5014443;28;20067;-82
2022/12/05 05:38:50;;;;;;;24.60;11.48;;;;;;;5.97;79.07;96140.53;5019543;28;20044;-82
2022/12/05 05:41:18;;;;;;;22.15;10.75;;;;;;;5.00;79.33;96015.91;5032172;28;20041;-83
2022/12/05 05:43:44;;;;;;;24.98;10.85;;;;;;;5.24;79.78;96067.66;5030700;28;20176;-84
2022/12/05 05:46:11;;;;;;;22.27;11.68;;;;;;;5.26;79.72;96049.84;5031611;28;20052;-83
2022/12/05 05:48:37;;;;;;;38.85;12.88;;;;;;;5.75;79.57;96117.28;5019634;28;20049;-82
2022/12/05 05:51:04;;;;;;;32.88;13.90;;;;;;;5.64;79.60;96101.44;5015480;28;20041;-82
2022/12/05 05:53:30;;;;;;;28.58;12.75;;;;;;;5.89;79.92;96146.91;5049292;28;20191;-83
2022/12/05 05:56:00;;;;;;;32.00;13.70;;;;;;;5.09;79.08;96011.19;5032888;28;20044;-83
2022/12/05 05:58:26;;;;;;;37.33;12.80;;;;;;;5.98;79.62;96148.22;5018459;28;20048;-83
2022/12/05 06:00:51;;;;;;;29.02;12.85;;;;;;;5.05;78.90;96000.28;5012753;28;20049;-84
2022/12/05 06:03:17;;;;;;;31.35;13.80;;;;;;;5.43;79.15;96060.56;5051762;28;20055;-83
2022/12/05 06:05:42;;;;;;;32.97;13.02;;;;;;;4.96;79.05;95994.50;5034151;28;20131;-82
2022/12/05 06:08:08;;;;;;;30.58;12.82;;;;;;;6.12;78.70;96157.56;5020449;28;20188;-82
2022/12/05 06:10:33;;;;;;;28.20;12.45;;;;;;;3.85;78.63;95808.13;5033545;28;20053;-82
2022/12/05 06:12:59;;;;;;;26.45;11.80;;;;;;;5.54;78.47;96059.03;5036605;28;20048;-83
2022/12/05 06:15:25;;;;;;;23.90;12.68;;;;;;;5.54;78.49;96067.72;5014899;28;20045;-84
2022/12/05 06:17:50;;;;;;;24.70;12.02;;;;;;;5.71;78.55;96108.22;5032354;28;20039;-82
2022/12/05 06:20:25;;;;;;;31.65;12.98;;;;;;;5.75;78.81;96119.09;5016907;28;20681;-82
2022/12/05 06:22:50;;;;;;;25.67;13.32;;;;;;;5.24;78.99;96024.78;5009801;28;20519;-82
2022/12/05 06:25:16;;;;;;;34.25;12.05;;;;;;;5.02;79.19;95998.91;5013756;28;20055;-81
2022/12/05 06:27:41;;;;;;;22.33;10.90;;;;;;;5.39;79.29;96047.06;5013216;28;20135;-81
2022/12/05 06:30:07;;;;;;;23.15;11.23;;;;;;;6.03;79.39;96147.56;5011505;28;20044;-80
2022/12/05 06:32:33;;;;;;;21.33;11.27;;;;;;;5.39;79.05;96044.44;5010720;28;20072;-83
2022/12/05 06:34:58;;;;;;;25.42;11.65;;;;;;;4.98;78.44;95986.41;5011580;28;22119;-82
2022/12/05 06:37:26;;;;;;;24.23;11.05;;;;;;;4.57;79.66;95953.69;5016474;28;20538;-82
2022/12/05 06:39:51;;;;;;;26.13;10.65;;;;;;;5.86;79.74;96159.69;5048260;28;20551;-82
2022/12/05 06:42:17;;;;;;;22.90;10.52;;;;;;;5.29;79.85;96069.63;5012954;28;20040;-81
2022/12/05 06:44:42;;;;;;;27.90;11.50;;;;;;;4.97;79.91;96011.09;5027769;28;20470;-80
2022/12/05 06:47:08;;;;;;;28.02;11.65;;;;;;;5.31;79.62;96067.59;5027123;28;20495;-80
2022/12/05 06:49:34;;;;;;;23.77;11.55;;;;;;;5.70;79.50;96116.34;5029441;28;20036;-80
2022/12/05 06:52:00;;;;;;;23.33;12.00;;;;;;;5.54;79.36;96090.59;5028297;28;20451;-79
2022/12/05 06:54:25;;;;;;;29.73;12.55;;;;;;;5.60;79.35;96110.78;5009877;28;20623;-80
2022/12/05 06:56:50;;;;;;;27.23;12.68;;;;;;;5.45;79.56;96084.81;5026822;28;20533;-80
2022/12/05 06:59:16;;;;;;;27.33;12.45;;;;;;;5.52;79.10;96074.22;5025752;28;20124;-80
2022/12/05 07:01:42;;;;;;;23.05;10.45;;;;;;;5.75;78.78;96096.22;5027299;28;20522;-83
2022/12/05 07:04:10;;;;;;;31.45;12.05;;;;;;;5.96;79.22;96165.25;5021182;28;20037;-82
2022/12/05 07:06:38;;;;;;;23.45;12.45;;;;;;;5.96;79.39;96160.81;5021228;28;20226;-81
2022/12/05 07:09:05;;;;;;;31.55;11.93;;;;;;;5.28;78.88;96032.00;5010670;28;20161;-81
2022/12/05 07:11:31;;;;;;;27.13;12.88;;;;;;;5.33;78.53;96039.25;5002404;28;20526;-81
2022/12/05 07:13:56;;;;;;;30.52;13.25;;;;;;;6.02;79.19;96162.59;5026332;28;20070;-81
2022/12/05 07:16:22;;;;;;;38.05;12.98;;;;;;;5.27;78.72;96059.31;5023771;28;20089;-82
2022/12/05 07:18:48;;;;;;;28.02;12.50;;;;;;;6.02;79.74;96173.13;5023705;28;20055;-80
2022/12/05 07:21:15;;;;;;;27.08;13.27;;;;;;;6.10;79.52;96172.78;5011123;28;20072;-80
2022/12/05 07:23:43;;;;;;;31.67;14.00;;;;;;;6.14;79.00;96171.34;5010168;28;20045;-80
2022/12/05 07:26:12;;;;;;;26.83;13.02;;;;;;;5.68;78.88;96098.13;5011034;28;20369;-81
2022/12/05 07:28:37;;;;;;;30.55;13.25;;;;;;;5.61;78.97;96078.19;5025838;28;20115;-80
2022/12/05 07:31:06;;;;;;;33.58;14.40;;;;;;;6.31;79.09;96171.53;5027247;28;20752;-80
2022/12/05 07:33:32;;;;;;;29.27;14.43;;;;;;;5.98;78.74;96110.56;5008648;28;20041;-80
2022/12/05 07:36:03;;;;;;;30.17;12.93;;;;;;;6.46;78.67;96181.69;5005739;28;20513;-80
2022/12/05 07:38:30;;;;;;;30.60;14.52;;;;;;;6.41;78.89;96182.34;5042885;28;20142;-83
2022/12/05 07:40:55;;;;;;;24.70;13.00;;;;;;;5.99;78.37;96114.81;5030066;28;20037;-80
2022/12/05 07:43:21;;;;;;;28.27;12.77;;;;;;;6.48;78.75;96206.00;5010641;28;20052;-79
2022/12/05 07:45:47;;;;;;;26.67;12.88;;;;;;;5.79;78.50;96071.09;5011881;28;20152;-80
2022/12/05 07:48:13;;;;;;;25.98;12.02;;;;;;;6.44;78.72;96195.06;5026749;28;20049;-80
2022/12/05 07:50:40;;;;;;;28.13;11.95;;;;;;;6.37;78.25;96193.56;5027657;28;20220;-81
2022/12/05 07:53:05;;;;;;;27.90;12.32;;;;;;;5.83;78.25;96097.75;5025096;28;20466;-81
2022/12/05 07:55:31;;;;;;;28.05;13.02;;;;;;;6.57;77.70;96191.44;5006091;28;20034;-80
2022/12/05 07:57:56;;;;;;;24.90;13.15;;;;;;;6.25;78.40;96137.38;5028990;28;20029;-80
2022/12/05 08:00:22;;;;;;;40.33;16.23;;;;;;;6.54;78.05;96184.00;5010063;28;20493;-81
2022/12/05 08:02:47;;;;;;;28.30;13.27;;;;;;;6.41;78.13;96184.16;5013877;28;20509;-82
2022/12/05 08:05:14;;;;;;;31.42;15.13;;;;;;;6.50;77.99;96181.00;5028224;28;20513;-80
2022/12/05 08:07:41;;;;;;;25.77;13.70;;;;;;;6.03;78.22;96106.22;5010929;28;20092;-80
2022/12/05 08:10:07;;;;;;;27.88;13.98;;;;;;;5.79;78.19;96043.97;5026817;28;20037;-82
2022/12/05 08:12:33;;;;;;;32.85;14.50;;;;;;;6.48;78.65;96185.72;4999569;28;20167;-81
2022/12/05 08:14:58;;;;;;;29.20;13.38;;;;;;;6.38;78.26;96166.19;5019838;28;20495;-81
2022/12/05 08:17:23;;;;;;;34.28;14.05;;;;;;;5.67;77.62;96051.78;5027790;28;20052;-82
2022/12/05 08:19:49;;;;;;;25.33;14.48;;;;;;;6.65;78.03;96183.22;5030015;28;20047;-82
2022/12/05 08:22:14;;;;;;;33.97;16.73;;;;;;;6.27;77.95;96115.03;5029260;28;20048;-83
2022/12/05 08:24:40;;;;;;;29.67;15.23;;;;;;;6.15;77.33;96101.84;5012490;28;20549;-82
2022/12/05 08:27:05;;;;;;;20.98;10.45;;;;;;;6.58;77.65;96196.50;5010294;28;20037;-82
2022/12/05 08:29:31;;;;;;;23.77;12.20;;;;;;;6.18;77.67;96108.47;5026678;28;20074;-80
2022/12/05 08:31:57;;;;;;;26.23;10.38;;;;;;;6.31;77.30;96120.69;5027347;28;20723;-81
2022/12/05 08:34:23;;;;;;;24.00;10.93;;;;;;;6.75;77.81;96175.59;5028458;28;20543;-83
2022/12/05 08:36:49;;;;;;;18.60;10.10;;;;;;;6.67;77.50;96180.38;5028797;28;20072;-79
2022/12/05 08:39:16;;;;;;;23.23;12.00;;;;;;;6.34;77.37;96110.47;5010265;28;20078;-81
2022/12/05 08:41:43;;;;;;;36.28;13.35;;;;;;;6.82;77.68;96193.94;5028026;28;20483;-81
2022/12/05 08:44:14;;;;;;;25.40;13.45;;;;;;;6.03;76.88;96074.63;5027185;28;20343;-82
2022/12/05 08:46:41;;;;;;;22.90;13.05;;;;;;;6.61;77.37;96160.19;5006660;28;21035;-80
2022/12/05 08:49:07;;;;;;;21.17;11.25;;;;;;;6.37;77.77;96144.28;5023580;28;20037;-82
2022/12/05 08:51:33;;;;;;;18.65;11.07;;;;;;;5.68;77.91;96034.97;5024843;28;20533;-81
2022/12/05 08:54:01;;;;;;;15.00;8.98;;;;;;;6.12;77.62;96090.94;5026064;28;20033;-83
2022/12/05 08:56:26;;;;;;;17.52;9.07;;;;;;;6.83;77.46;96177.09;5013027;28;20148;-84
2022/12/05 08:58:52;;;;;;;17.38;9.57;;;;;;;6.94;77.14;96185.03;5013097;28;20040;-82
2022/12/05 09:01:19;;;;;;;17.63;10.05;;;;;;;7.01;77.19;96178.88;5008386;28;20051;-81
2022/12/05 09:03:46;;;;;;;22.40;10.20;;;;;;;7.04;76.19;96181.84;5006925;28;20044;-82
2022/12/05 09:06:17;;;;;;;21.85;11.35;;;;;;;7.23;75.83;96182.59;5026656;28;20044;-81
2022/12/05 09:08:43;;;;;;;26.17;12.10;;;;;;;7.25;75.75;96188.41;5030428;28;20097;-81
2022/12/05 09:11:12;;;;;;;18.65;9.35;;;;;;;6.45;75.75;96093.91;5028017;28;20449;-81
2022/12/05 09:13:38;;;;;;;19.90;10.70;;;;;;;6.34;75.75;96086.78;5027712;28;20056;-81
2022/12/05 09:16:14;;;;;;;16.27;9.05;;;;;;;6.43;75.54;96055.63;5027328;28;20172;-82
2022/12/05 09:18:40;;;;;;;18.25;10.13;;;;;;;6.75;75.12;96080.69;5036840;28;20455;-81
2022/12/05 09:21:11;;;;;;;15.20;8.32;;;;;;;6.92;74.85;96088.75;5011184;28;20045;-81
2022/12/05 09:23:37;;;;;;;16.08;8.65;;;;;;;7.09;74.35;96115.25;5013882;28;20064;-82
2022/12/05 09:26:05;;;;;;;19.83;8.95;;;;;;;7.47;74.24;96147.28;5026813;28;20048;-81
2022/12/05 09:28:32;;;;;;;19.15;9.20;;;;;;;7.51;73.65;96169.50;5041436;28;20056;-82
2022/12/05 09:31:00;;;;;;;14.00;8.65;;;;;;;7.39;73.44;96129.13;5012730;28;20110;-82
2022/12/05 09:33:26;;;;;;;17.02;9.07;;;;;;;6.69;72.48;95999.88;5011738;28;20079;-82
2022/12/05 09:35:52;;;;;;;16.77;9.05;;;;;;;6.97;72.69;96073.03;5015802;28;20088;-82
2022/12/05 09:38:17;;;;;;;15.55;7.80;;;;;;;7.17;72.24;96075.34;5031857;28;20914;-81
2022/12/05 09:40:43;;;;;;;19.83;8.85;;;;;;;7.80;72.22;96165.13;5018564;28;20041;-82
2022/12/05 09:43:37;;;;;;;20.02;7.72;;;;;;;7.35;72.09;96091.03;4999936;28;20056;-82
2022/12/05 09:46:22;;;;;;;12.93;7.07;;;;;;;7.29;70.99;96084.03;5008854;28;20041;-84
2022/12/05 09:48:56;;;;;;;16.60;7.43;;;;;;;7.13;71.03;96050.44;5029615;28;20052;-83
2022/12/05 09:51:22;;;;;;;16.48;6.72;;;;;;;7.74;71.09;96148.38;5025759;28;20056;-81
2022/12/05 09:53:48;;;;;;;15.70;7.05;;;;;;;7.22;71.05;96072.81;5008047;28;20087;-81
2022/12/05 09:56:29;;;;;;;13.23;7.35;;;;;;;7.45;71.82;96117.66;5005039;28;20252;-81
2022/12/05 09:58:56;;;;;;;16.88;7.13;;;;;;;7.56;71.31;96110.75;5043354;28;20403;-82
2022/12/05 10:01:57;;;;;;;27.83;8.73;;;;;;;7.86;70.92;96147.56;5026963;28;20047;-81
2022/12/05 10:04:34;;;;;;;16.90;7.70;;;;;;;7.95;71.04;96151.44;5031676;28;20045;-81
2022/12/05 10:07:10;;;;;;;13.38;7.07;;;;;;;7.80;71.19;96144.00;5033358;28;20044;-82
2022/12/05 10:09:50;;;;;;;14.43;8.02;;;;;;;7.84;71.46;96142.53;5027891;28;20060;-81
2022/12/05 10:12:37;;;;;;;17.00;8.02;;;;;;;7.93;70.95;96137.69;5008742;28;20552;-82
2022/12/05 10:15:22;;;;;;;15.55;8.57;;;;;;;7.41;71.15;96052.34;5027450;28;20045;-82
2022/12/05 10:18:20;;;;;;;17.38;7.57;;;;;;;7.90;71.32;96135.50;5029229;28;20139;-82
2022/12/05 10:20:59;;;;;;;13.95;7.40;;;;;;;7.93;71.14;96127.13;5020455;28;20568;-81
2022/12/05 10:23:43;;;;;;;13.73;7.25;;;;;;;7.90;71.13;96132.84;5030725;28;20045;-80
2022/12/05 10:26:11;;;;;;;15.38;7.45;;;;;;;7.92;70.55;96134.25;5031771;28;20037;-81
2022/12/05 10:28:46;;;;;;;15.95;7.20;;;;;;;7.63;70.93;96098.22;5014308;28;20558;-81
2022/12/05 10:31:15;;;;;;;12.07;7.03;;;;;;;7.58;70.78;96093.66;5032004;28;20110;-81
2022/12/05 10:33:48;;;;;;;11.85;6.20;;;;;;;6.85;70.62;95983.38;5032001;28;20041;-83
2022/12/05 10:36:14;;;;;;;12.60;7.18;;;;;;;7.03;70.74;95994.81;5012113;28;20415;-81
2022/12/05 10:38:42;;;;;;;16.00;7.80;;;;;;;7.65;71.30;96114.63;5014438;28;20037;-83
2022/12/05 10:41:11;;;;;;;14.82;8.27;;;;;;;7.18;70.65;96022.31;5031117;28;20063;-81
2022/12/05 10:43:39;;;;;;;11.73;7.00;;;;;;;7.91;70.65;96121.25;5025304;28;20048;-81
2022/12/05 10:46:05;;;;;;;13.23;8.40;;;;;;;7.86;70.77;96103.44;5027287;28;20052;-81
2022/12/05 10:48:38;;;;;;;16.45;9.02;;;;;;;7.84;70.42;96134.59;5025613;28;20605;-83
2022/12/05 10:51:05;;;;;;;15.38;8.93;;;;;;;7.38;71.40;96039.63;5010907;28;20540;-81
2022/12/05 10:53:39;;;;;;;17.58;8.90;;;;;;;7.85;71.17;96101.06;5033127;28;20926;-81
2022/12/05 10:56:46;;;;;;;20.52;9.57;;;;;;;7.88;71.13;96111.94;5026065;28;20860;-82
2022/12/05 10:59:24;;;;;;;19.10;8.73;;;;;;;7.46;70.92;96032.16;5021928;28;20037;-81
2022/12/05 11:01:57;;;;;;;19.27;7.60;;;;;;;7.76;70.73;96074.22;5028729;28;20153;-82
2022/12/05 11:04:25;;;;;;;17.52;8.85;;;;;;;7.36;70.99;96024.84;5027801;28;20072;-81
2022/12/05 11:07:03;;;;;;;22.95;11.52;;;;;;;7.74;71.02;96077.09;5022647;28;20930;-81
2022/12/05 11:09:36;;;;;;;18.98;10.23;;;;;;;6.94;71.50;95973.28;5010518;28;20525;-82
2022/12/05 11:12:08;;;;;;;16.58;9.82;;;;;;;7.87;71.41;96097.13;5026954;28;20072;-84
2022/12/05 11:14:35;;;;;;;;;;;;;;;7.86;71.31;96097.41;5009126;28;20045;-82
2022/12/05 11:17:04;;;;;;;15.23;7.80;;;;;;;7.07;71.53;95983.59;5034211;28;19920;-82
2022/12/05 11:19:37;;;;;;;16.60;8.88;;;;;;;7.03;71.35;95957.88;5015211;28;20091;-82
2022/12/05 11:22:15;;;;;;;18.13;9.55;;;;;;;7.89;71.15;96092.44;5010870;28;20044;-83
2022/12/05 11:24:43;;;;;;;20.92;9.63;;;;;;;7.12;70.72;95978.41;5021280;28;20050;-83
2022/12/05 11:27:32;;;;;;;16.00;8.27;;;;;;;7.89;71.07;96070.50;5004430;28;20147;-83
2022/12/05 11:29:59;;;;;;;19.30;9.57;;;;;;;7.81;70.78;96062.94;5019452;28;20049;-81
2022/12/05 11:32:30;;;;;;;16.70;9.00;;;;;;;7.91;70.84;96079.00;5001112;28;20079;-80
2022/12/05 11:35:11;;;;;;;14.60;8.30;;;;;;;7.85;70.59;96064.09;5007469;28;20055;-81
2022/12/05 11:38:04;;;;;;;23.92;8.18;;;;;;;7.72;71.01;96068.59;5008810;28;20044;-81
2022/12/05 11:41:02;;;;;;;17.13;9.45;;;;;;;7.81;70.82;96066.38;5018187;28;20052;-80
2022/12/05 11:43:39;;;;;;;13.45;8.38;;;;;;;7.71;71.29;96064.34;5026796;28;20114;-81
2022/12/05 11:46:13;;;;;;;16.40;8.90;;;;;;;7.69;71.42;96060.34;5028065;28;20598;-81
2022/12/05 11:49:03;;;;;;;17.88;9.80;;;;;;;7.71;71.43;96056.41;5010522;28;20758;-81
2022/12/05 11:52:01;;;;;;;17.27;9.45;;;;;;;7.43;71.65;96031.81;5029663;28;20095;-81